Time;durP1;ratioP1;P1;durP2;ratioP2;P2;SDS_P1;SDS_P2;PMS_P1;PMS_P2;Temp;Humidity;BMP_temperature;BMP_pressure;BME280_temperature;BME280_humidity;BME280_pressure;Samples;Min_cycle;Max_cycle;Signal;HPM_P1;HPM_P2
2023/09/21 00:01:15;;;;;;;;;;;;;;;13.99;82.57;99178.30;109128;1289;22583;-58
2023/09/21 00:03:44;;;;;;;;;;;;;;;14.01;82.73;99178.17;109372;1286;87896;-58
2023/09/21 00:06:17;;;;;;;;;;;;;;;14.03;82.85;99176.45;109409;1286;22422;-58
2023/09/21 00:08:48;;;;;;;;;;;;;;;14.03;82.81;99176.08;109363;1286;85632;-58
2023/09/21 00:11:18;;;;;;;;;;;;;;;14.03;83.03;99168.39;109444;1285;22406;-58
2023/09/21 00:13:46;;;;;;;;;;;;;;;14.04;83.06;99170.27;109430;1286;23430;-58
2023/09/21 00:16:16;;;;;;;;;;;;;;;14.05;83.18;99168.23;109384;1286;86568;-58
2023/09/21 00:18:45;;;;;;;;;;;;;;;14.04;83.28;99168.81;109423;1285;23029;-58
2023/09/21 00:21:15;;;;;;;;;;;;;;;14.03;83.57;99162.65;109116;1287;85448;-58
2023/09/21 00:23:44;;;;;;;;;;;;;;;14.01;83.57;99160.68;109428;1286;22472;-58
2023/09/21 00:26:14;;;;;;;;;;;;;;;13.99;83.74;99163.92;109350;1281;86701;-58
2023/09/21 00:28:43;;;;;;;;;;;;;;;13.98;84.00;99158.62;109156;1286;22442;-58
2023/09/21 00:31:13;;;;;;;;;;;;;;;13.96;84.20;99154.73;109419;1285;22430;-58
2023/09/21 00:33:42;;;;;;;;;;;;;;;13.94;84.27;99147.18;109352;1285;86693;-58
2023/09/21 00:36:13;;;;;;;;;;;;;;;13.92;84.40;99147.66;109459;1287;22483;-58
2023/09/21 00:38:42;;;;;;;;;;;;;;;13.90;84.34;99149.74;109206;1286;86305;-58
2023/09/21 00:41:10;;;;;;;;;;;;;;;13.87;84.44;99155.52;109418;1286;22459;-58
2023/09/21 00:43:39;;;;;;;;;;;;;;;13.86;84.35;99150.02;109152;1288;23213;-58
2023/09/21 00:46:07;;;;;;;;;;;;;;;13.88;84.48;99149.17;109389;1286;87465;-58
2023/09/21 00:48:42;;;;;;;;;;;;;;;13.85;84.60;99143.92;109422;1287;22464;-58
2023/09/21 00:51:13;;;;;;;;;;;;;;;13.83;84.54;99144.62;109358;1286;86595;-58
2023/09/21 00:53:44;;;;;;;;;;;;;;;13.81;84.64;99145.09;109461;1286;22433;-58
2023/09/21 00:56:13;;;;;;;;;;;;;;;13.79;84.72;99139.30;109338;1285;86707;-58
2023/09/21 00:58:45;;;;;;;;;;;;;;;13.78;84.86;99135.36;109441;1285;23294;-58
2023/09/21 01:01:23;;;;;;;;;;;;;;;13.76;84.99;99137.05;109414;1286;23275;-58
2023/09/21 01:03:53;;;;;;;;;;;;;;;13.77;85.06;99134.71;109385;1286;86979;-58
2023/09/21 01:06:23;;;;;;;;;;;;;;;13.76;85.16;99138.60;109444;1285;22464;-58
2023/09/21 01:08:52;;;;;;;;;;;;;;;13.77;85.27;99138.94;109332;1285;85087;-58
2023/09/21 01:11:21;;;;;;;;;;;;;;;13.80;85.36;99137.50;109452;1289;23115;-58
2023/09/21 01:13:49;;;;;;;;;;;;;;;13.81;85.17;99135.47;109427;1286;22430;-58
2023/09/21 01:16:23;;;;;;;;;;;;;;;13.83;85.31;99139.20;109387;1286;86283;-58
2023/09/21 01:18:52;;;;;;;;;;;;;;;13.83;85.44;99136.73;109183;1286;22402;-58
2023/09/21 01:21:35;;;;;;;;;;;;;;;13.83;85.66;99136.41;109359;1286;84936;-58
2023/09/21 01:24:05;;;;;;;;;;;;;;;13.84;85.78;99129.89;109435;1286;22509;-58
2023/09/21 01:26:33;;;;;;;;;;;;;;;13.85;85.84;99131.70;109348;1286;86935;-58
2023/09/21 01:29:01;;;;;;;;;;;;;;;13.85;85.99;99129.74;109166;1287;22433;-58
2023/09/21 01:31:30;;;;;;;;;;;;;;;13.85;86.13;99125.60;109424;1285;22461;-58
2023/09/21 01:34:00;;;;;;;;;;;;;;;13.85;86.15;99121.76;109397;1286;85492;-58
2023/09/21 01:36:57;;;;;;;;;;;;;;;13.86;86.14;99119.20;108767;1292;22650;-58
2023/09/21 01:39:25;;;;;;;;;;;;;;;13.86;86.17;99117.43;108688;1292;86559;-58
2023/09/21 01:41:54;;;;;;;;;;;;;;;13.86;86.20;99115.20;108724;1293;22469;-58
2023/09/21 01:44:22;;;;;;;;;;;;;;;13.86;86.19;99113.76;108759;1291;86414;-58
2023/09/21 01:46:50;;;;;;;;;;;;;;;13.86;86.25;99114.34;108749;1291;22392;-58
2023/09/21 01:49:19;;;;;;;;;;;;;;;13.85;86.39;99113.81;108790;1295;22423;-58
2023/09/21 01:51:49;;;;;;;;;;;;;;;13.88;86.43;99114.16;108689;1292;86445;-58
2023/09/21 01:54:17;;;;;;;;;;;;;;;13.91;86.42;99116.20;108766;1291;22572;-58
2023/09/21 01:56:45;;;;;;;;;;;;;;;13.97;86.43;99117.05;108731;1282;86395;-58
2023/09/21 01:59:14;;;;;;;;;;;;;;;14.00;86.45;99116.12;108733;1292;22494;-58
2023/09/21 02:01:42;;;;;;;;;;;;;;;14.01;86.50;99116.04;108768;1292;23261;-58
2023/09/21 02:04:10;;;;;;;;;;;;;;;14.04;86.46;99114.58;108682;1291;85140;-58
2023/09/21 02:06:40;;;;;;;;;;;;;;;14.07;86.52;99108.61;108783;1291;22579;-58
2023/09/21 02:09:09;;;;;;;;;;;;;;;14.13;86.43;99106.27;108717;1298;86885;-58
2023/09/21 02:11:38;;;;;;;;;;;;;;;14.14;86.53;99101.14;109152;1283;23317;-58
2023/09/21 02:14:08;;;;;;;;;;;;;;;14.16;86.51;99095.54;109373;1286;85067;-58
2023/09/21 02:16:36;;;;;;;;;;;;;;;14.17;86.67;99089.73;109432;1285;22499;-58
2023/09/21 02:19:07;;;;;;;;;;;;;;;14.18;86.61;99090.87;109391;1285;23355;-58
2023/09/21 02:21:36;;;;;;;;;;;;;;;14.16;86.60;99087.70;109342;1286;86183;-58
2023/09/21 02:24:05;;;;;;;;;;;;;;;14.12;86.73;99085.52;109164;1286;22453;-58
2023/09/21 02:26:37;;;;;;;;;;;;;;;14.12;86.76;99086.07;109388;1286;85944;-58
2023/09/21 02:29:06;;;;;;;;;;;;;;;14.11;86.75;99084.36;109441;1279;23195;-58
2023/09/21 02:31:37;;;;;;;;;;;;;;;14.08;86.77;99086.80;109445;1285;22452;-58
2023/09/21 02:34:05;;;;;;;;;;;;;;;14.09;86.82;99084.10;109371;1285;87497;-58
2023/09/21 02:36:34;;;;;;;;;;;;;;;14.13;86.80;99079.00;109448;1285;22499;-58
2023/09/21 02:39:08;;;;;;;;;;;;;;;14.15;86.69;99078.66;109109;1289;87763;-58
2023/09/21 02:41:37;;;;;;;;;;;;;;;14.16;86.53;99078.73;109452;1285;22455;-58
2023/09/21 02:44:05;;;;;;;;;;;;;;;14.14;86.47;99079.80;109399;1285;85208;-58
2023/09/21 02:46:33;;;;;;;;;;;;;;;14.09;86.46;99075.52;109432;1285;22498;-58
2023/09/21 02:49:02;;;;;;;;;;;;;;;14.09;86.52;99078.00;109415;1285;22562;-58
2023/09/21 02:51:30;;;;;;;;;;;;;;;14.09;86.51;99073.46;109344;1285;86639;-58
2023/09/21 02:53:59;;;;;;;;;;;;;;;14.07;86.46;99075.50;109432;1285;22463;-58
2023/09/21 02:56:29;;;;;;;;;;;;;;;14.06;86.49;99078.04;109385;1279;87172;-58
2023/09/21 02:58:57;;;;;;;;;;;;;;;14.06;86.63;99069.47;109170;1285;22437;-58
2023/09/21 03:01:26;;;;;;;;;;;;;;;14.05;86.49;99071.80;109465;1285;23143;-58
2023/09/21 03:03:54;;;;;;;;;;;;;;;14.05;86.49;99071.98;109445;1285;86499;-58
2023/09/21 03:06:23;;;;;;;;;;;;;;;14.02;86.53;99073.46;109432;1286;22502;-58
2023/09/21 03:08:52;;;;;;;;;;;;;;;14.00;86.63;99076.20;109390;1285;86370;-58
2023/09/21 03:11:20;;;;;;;;;;;;;;;14.01;86.63;99074.95;109441;1286;22589;-58
2023/09/21 03:13:48;;;;;;;;;;;;;;;14.02;86.67;99075.73;109410;1285;22438;-58
2023/09/21 03:16:17;;;;;;;;;;;;;;;14.00;86.67;99074.84;109333;1285;86455;-58
2023/09/21 03:18:47;;;;;;;;;;;;;;;13.98;86.85;99072.70;109106;1285;22472;-58
2023/09/21 03:21:16;;;;;;;;;;;;;;;13.97;87.01;99079.42;109365;1286;86655;-58
2023/09/21 03:23:46;;;;;;;;;;;;;;;13.96;86.98;99075.48;109421;1285;22459;-58
2023/09/21 03:26:15;;;;;;;;;;;;;;;13.94;87.16;99071.75;109352;1285;86096;-58
2023/09/21 03:28:45;;;;;;;;;;;;;;;13.93;87.09;99068.83;109425;1285;22475;-58
2023/09/21 03:31:16;;;;;;;;;;;;;;;13.93;87.04;99070.23;109430;1286;23216;-58
2023/09/21 03:33:46;;;;;;;;;;;;;;;13.90;86.97;99067.84;109359;1285;86536;-58
2023/09/21 03:36:16;;;;;;;;;;;;;;;13.84;86.89;99063.52;109426;1282;22429;-58
2023/09/21 03:38:47;;;;;;;;;;;;;;;13.78;86.94;99060.80;109336;1285;87732;-58
2023/09/21 03:41:16;;;;;;;;;;;;;;;13.73;86.88;99057.19;109418;1285;23203;-58
2023/09/21 03:43:44;;;;;;;;;;;;;;;13.64;86.71;99059.52;109417;1285;23180;-58
2023/09/21 03:46:13;;;;;;;;;;;;;;;13.57;86.85;99063.14;109362;1285;85993;-57
2023/09/21 03:48:42;;;;;;;;;;;;;;;13.51;86.81;99057.32;109410;1285;22472;-58
2023/09/21 03:51:12;;;;;;;;;;;;;;;13.45;86.83;99055.80;109079;1287;87545;-58
2023/09/21 03:53:40;;;;;;;;;;;;;;;13.40;86.80;99053.52;109459;1285;22441;-58
2023/09/21 03:56:09;;;;;;;;;;;;;;;13.35;86.80;99054.57;109351;1284;86803;-58
2023/09/21 03:58:38;;;;;;;;;;;;;;;13.32;86.92;99052.20;109443;1286;23358;-58
2023/09/21 04:01:09;;;;;;;;;;;;;;;13.28;86.94;99052.76;109440;1285;22446;-57
2023/09/21 04:03:38;;;;;;;;;;;;;;;13.28;87.03;99049.32;109354;1285;86473;-57
2023/09/21 04:06:06;;;;;;;;;;;;;;;13.29;87.08;99048.36;109415;1285;22434;-58
2023/09/21 04:08:35;;;;;;;;;;;;;;;13.28;87.23;99043.01;109316;1285;85412;-58
2023/09/21 04:11:03;;;;;;;;;;;;;;;13.26;87.26;99045.95;109135;1285;23154;-58
2023/09/21 04:13:32;;;;;;;;;;;;;;;13.24;87.33;99044.33;109381;1285;23444;-57
2023/09/21 04:16:05;;;;;;;;;;;;;;;13.22;87.52;99048.09;109298;1285;85016;-57
2023/09/21 04:18:34;;;;;;;;;;;;;;;13.21;87.59;99041.83;109414;1285;22454;-58
2023/09/21 04:21:06;;;;;;;;;;;;;;;13.20;87.66;99038.96;109314;1286;86534;-58
2023/09/21 04:23:47;;;;;;;;;;;;;;;13.18;87.66;99037.02;109194;1286;23211;-57
2023/09/21 04:26:15;;;;;;;;;;;;;;;13.17;87.65;99034.46;109310;1286;87043;-57
2023/09/21 04:28:48;;;;;;;;;;;;;;;13.16;87.60;99034.33;109395;1285;23661;-57
2023/09/21 04:31:18;;;;;;;;;;;;;;;13.15;88.39;99031.06;109427;1286;22420;-57
2023/09/21 04:33:46;;;;;;;;;;;;;;;13.17;88.51;99031.30;109322;1285;87072;-57
2023/09/21 04:36:15;;;;;;;;;;;;;;;13.19;88.58;99029.95;109419;1289;22425;-57
2023/09/21 04:38:47;;;;;;;;;;;;;;;13.19;88.52;99029.02;109349;1285;86517;-56
2023/09/21 04:41:15;;;;;;;;;;;;;;;13.21;88.67;99029.59;109428;1286;22448;-57
2023/09/21 04:43:44;;;;;;;;;;;;;;;13.23;88.81;99032.29;109198;1287;23181;-56
2023/09/21 04:46:13;;;;;;;;;;;;;;;13.28;88.88;99030.95;109387;1285;86005;-57
2023/09/21 04:48:41;;;;;;;;;;;;;;;13.32;88.93;99029.98;109377;1285;22442;-56
2023/09/21 04:51:12;;;;;;;;;;;;;;;13.36;88.96;99029.48;109315;1285;86124;-57
2023/09/21 04:53:41;;;;;;;;;;;;;;;13.41;88.97;99027.42;109422;1285;22437;-57
2023/09/21 04:56:09;;;;;;;;;;;;;;;13.47;88.86;99026.34;109363;1286;86506;-56
2023/09/21 04:58:38;;;;;;;;;;;;;;;13.51;88.90;99022.48;109450;1285;22447;-56
2023/09/21 05:01:09;;;;;;;;;;;;;;;13.58;88.88;99019.38;109414;1279;22422;-56
2023/09/21 05:03:37;;;;;;;;;;;;;;;13.65;88.99;99016.45;109117;1286;85948;-56
2023/09/21 05:06:06;;;;;;;;;;;;;;;13.75;88.93;99021.91;109378;1285;22503;-56
2023/09/21 05:08:36;;;;;;;;;;;;;;;13.82;88.84;99018.56;109362;1285;86432;-56
2023/09/21 05:11:04;;;;;;;;;;;;;;;13.88;88.90;99014.42;109395;1285;22462;-55
2023/09/21 05:13:33;;;;;;;;;;;;;;;13.95;88.93;99009.39;109441;1285;22433;-56
2023/09/21 05:16:02;;;;;;;;;;;;;;;14.03;89.03;99011.63;109334;1274;86528;-57
2023/09/21 05:18:30;;;;;;;;;;;;;;;14.12;89.05;99018.33;109401;1285;22519;-57
2023/09/21 05:21:04;;;;;;;;;;;;;;;14.22;89.13;99016.05;109298;1285;85045;-57
2023/09/21 05:23:36;;;;;;;;;;;;;;;14.33;89.21;99019.07;109364;1286;22435;-57
2023/09/21 05:26:04;;;;;;;;;;;;;;;14.44;89.12;99016.29;109302;1285;86872;-57
2023/09/21 05:28:32;;;;;;;;;;;;;;;14.55;89.14;99012.50;109414;1285;22430;-57
2023/09/21 05:31:01;;;;;;;;;;;;;;;14.66;89.06;99009.13;109442;1285;23186;-57
2023/09/21 05:33:30;;;;;;;;;;;;;;;14.76;88.98;99011.48;109335;1285;87343;-57
2023/09/21 05:36:04;;;;;;;;;;;;;;;14.88;89.03;99014.89;109436;1279;23060;-57
2023/09/21 05:38:33;;;;;;;;;;;;;;;15.01;88.96;99015.68;109348;1284;86173;-57
2023/09/21 05:41:06;;;;;;;;;;;;;;;15.14;88.84;99015.74;109133;1285;23584;-57
2023/09/21 05:43:34;;;;;;;;;;;;;;;15.28;89.00;99009.39;109429;1286;22414;-58
2023/09/21 05:46:03;;;;;;;;;;;;;;;15.42;88.87;99007.09;109268;1285;86563;-57
2023/09/21 05:48:32;;;;;;;;;;;;;;;15.58;88.93;99009.04;109372;1285;22414;-57
2023/09/21 05:51:01;;;;;;;;;;;;;;;15.73;88.92;99009.75;109317;1285;86124;-57
2023/09/21 05:53:31;;;;;;;;;;;;;;;15.91;88.96;99006.42;109429;1285;22451;-58
2023/09/21 05:56:00;;;;;;;;;;;;;;;16.07;88.89;99006.85;109339;1285;86112;-58
2023/09/21 05:58:30;;;;;;;;;;;;;;;16.21;88.69;99003.73;109406;1285;22468;-58
2023/09/21 06:00:59;;;;;;;;;;;;;;;16.35;88.74;99004.23;109177;1286;22469;-58
2023/09/21 06:03:28;;;;;;;;;;;;;;;16.50;88.56;99003.52;109359;1286;86031;-58
2023/09/21 06:05:56;;;;;;;;;;;;;;;16.66;88.47;99004.98;109091;1286;295575;-58
2023/09/21 06:08:24;;;;;;;;;;;;;;;16.87;88.37;99008.87;109333;1285;86361;-58
2023/09/21 06:10:53;;;;;;;;;;;;;;;17.09;88.34;99011.85;109215;1286;23153;-58
2023/09/21 06:13:25;;;;;;;;;;;;;;;17.29;88.07;99013.94;109407;1278;22423;-58
2023/09/21 06:15:53;;;;;;;;;;;;;;;17.45;87.91;99010.74;109366;1286;86996;-58
2023/09/21 06:18:22;;;;;;;;;;;;;;;17.56;87.51;99008.90;109385;1285;22419;-58
2023/09/21 06:20:54;;;;;;;;;;;;;;;17.66;87.13;99005.73;109323;1285;86545;-55
2023/09/21 06:23:23;;;;;;;;;;;;;;;17.74;86.48;99012.05;109425;1285;22423;-57
2023/09/21 06:25:51;;;;;;;;;;;;;;;17.82;86.03;99010.16;109399;1285;22529;-50
2023/09/21 06:28:21;;;;;;;;;;;;;;;17.87;85.73;99008.82;109310;1285;86398;-56
2023/09/21 06:30:51;;;;;;;;;;;;;;;17.95;85.30;98997.17;109421;1285;22443;-59
2023/09/21 06:33:23;;;;;;;;;;;;;;;18.02;84.95;98992.14;109325;1283;85432;-59
2023/09/21 06:35:52;;;;;;;;;;;;;;;18.09;84.06;98988.71;109127;1286;22435;-58
2023/09/21 06:38:21;;;;;;;;;;;;;;;18.11;83.45;98990.52;109206;1286;86184;-55
2023/09/21 06:40:50;;;;;;;;;;;;;;;18.20;82.88;98987.59;109367;1279;22442;-57
2023/09/21 06:43:18;;;;;;;;;;;;;;;18.34;82.34;98988.27;109386;1285;22671;-59
2023/09/21 06:45:46;;;;;;;;;;;;;;;18.48;81.87;98985.67;109227;1283;86088;-58
2023/09/21 06:48:16;;;;;;;;;;;;;;;18.71;81.71;98984.91;109159;1286;23203;-57
2023/09/21 06:50:44;;;;;;;;;;;;;;;18.94;81.24;98984.14;109360;1285;86130;-57
2023/09/21 06:53:14;;;;;;;;;;;;;;;19.23;81.14;98984.55;109425;1285;22438;-59
2023/09/21 06:55:43;;;;;;;;;;;;;;;19.56;80.43;98988.13;109166;1285;22450;-58
2023/09/21 06:58:11;;;;;;;;;;;;;;;19.59;79.80;98988.52;109338;1284;87906;-58
2023/09/21 07:00:40;;;;;;;;;;;;;;;19.73;79.37;98994.49;109406;1285;22431;-59
2023/09/21 07:03:11;;;;;;;;;;;;;;;19.84;78.65;98993.73;109335;1279;85234;-57
2023/09/21 07:05:40;;;;;;;;;;;;;;;19.97;78.13;98989.38;109395;1285;22457;-58
2023/09/21 07:08:08;;;;;;;;;;;;;;;20.06;77.44;98989.01;109326;1285;86784;-57
2023/09/21 07:10:37;;;;;;;;;;;;;;;20.23;77.11;98992.42;109369;1284;22520;-57
2023/09/21 07:13:08;;;;;;;;;;;;;;;20.42;76.57;98992.85;109392;1279;22491;-59
2023/09/21 07:15:38;;;;;;;;;;;;;;;20.82;76.61;98991.45;109185;1286;84906;-57
2023/09/21 07:18:07;;;;;;;;;;;;;;;21.22;75.60;98993.15;109403;1285;22501;-55
2023/09/21 07:20:35;;;;;;;;;;;;;;;21.31;74.53;98993.75;109357;1285;86729;-57
2023/09/21 07:23:04;;;;;;;;;;;;;;;21.50;74.16;98994.20;109292;1286;22427;-57
2023/09/21 07:25:32;;;;;;;;;;;;;;;21.78;73.73;98991.14;109416;1285;22441;-58
2023/09/21 07:28:01;;;;;;;;;;;;;;;22.19;73.46;98992.10;109334;1285;86917;-58
2023/09/21 07:30:31;;;;;;;;;;;;;;;22.54;72.61;98983.77;109442;1285;22431;-56
2023/09/21 07:33:00;;;;;;;;;;;;;;;22.92;72.00;98983.50;109311;1285;86028;-56
2023/09/21 07:35:30;;;;;;;;;;;;;;;23.20;70.59;98978.92;109206;1285;23143;-55
2023/09/21 07:37:58;;;;;;;;;;;;;;;23.62;70.15;98974.02;109358;1285;86762;-56
2023/09/21 07:40:29;;;;;;;;;;;;;;;24.16;69.59;98969.23;109352;1285;22547;-56
2023/09/21 07:42:57;;;;;;;;;;;;;;;24.48;67.79;98967.41;109429;1286;22439;-56
2023/09/21 07:45:26;;;;;;;;;;;;;;;24.81;66.11;98963.59;109352;1285;85483;-57
2023/09/21 07:47:55;;;;;;;;;;;;;;;25.43;64.78;98964.23;109401;1285;22484;-56
2023/09/21 07:50:23;;;;;;;;;;;;;;;26.15;64.29;98961.10;109359;1285;88458;-56
2023/09/21 07:52:56;;;;;;;;;;;;;;;26.62;62.46;98957.54;109446;1285;22448;-56
2023/09/21 07:55:25;;;;;;;;;;;;;;;26.75;60.05;98960.02;109195;1286;22439;-56
2023/09/21 07:57:53;;;;;;;;;;;;;;;26.73;58.76;98957.45;109355;1285;87076;-57
2023/09/21 08:00:21;;;;;;;;;;;;;;;27.21;57.98;98950.18;109395;1285;22412;-56
2023/09/21 08:02:50;;;;;;;;;;;;;;;27.70;56.31;98946.88;109354;1285;86343;-56
2023/09/21 08:05:19;;;;;;;;;;;;;;;28.88;55.81;98945.77;109371;1285;22492;-58
2023/09/21 08:07:49;;;;;;;;;;;;;;;30.34;54.79;98941.40;109416;1285;22485;-56
2023/09/21 08:10:20;;;;;;;;;;;;;;;31.10;52.27;98936.96;109337;1285;86305;-55
2023/09/21 08:12:49;;;;;;;;;;;;;;;32.01;51.49;98932.37;109407;1285;23237;-55
2023/09/21 08:15:19;;;;;;;;;;;;;;;33.55;49.39;98933.85;109378;1285;87965;-56
2023/09/21 08:17:47;;;;;;;;;;;;;;;34.03;46.54;98937.48;109405;1285;23155;-56
2023/09/21 08:20:16;;;;;;;;;;;;;;;34.00;45.54;98933.62;109345;1285;86192;-56
2023/09/21 08:22:47;;;;;;;;;;;;;;;34.06;43.75;98931.05;109428;1285;22453;-56
2023/09/21 08:25:16;;;;;;;;;;;;;;;34.36;42.26;98928.77;109441;1285;22481;-55
2023/09/21 08:27:45;;;;;;;;;;;;;;;35.11;41.83;98929.91;109392;1285;85842;-56
2023/09/21 08:30:19;;;;;;;;;;;;;;;36.05;39.34;98931.12;109459;1285;22508;-55
2023/09/21 08:32:48;;;;;;;;;;;;;;;35.89;37.86;98931.00;109344;1285;85987;-55
2023/09/21 08:35:16;;;;;;;;;;;;;;;36.13;36.81;98927.65;109426;1285;22468;-56
2023/09/21 08:37:45;;;;;;;;;;;;;;;36.90;36.16;98923.92;109366;1278;22411;-55
2023/09/21 08:40:14;;;;;;;;;;;;;;;37.87;35.09;98920.91;109333;1286;85936;-56
2023/09/21 08:42:44;;;;;;;;;;;;;;;38.56;34.09;98920.55;109200;1286;22448;-56
2023/09/21 08:45:13;;;;;;;;;;;;;;;38.97;32.60;98921.14;109345;1286;86127;-56
2023/09/21 08:47:42;;;;;;;;;;;;;;;39.10;30.29;98923.42;109419;1285;22412;-56
2023/09/21 08:50:13;;;;;;;;;;;;;;;38.56;29.36;98925.66;109377;1283;86835;-55
2023/09/21 08:52:44;;;;;;;;;;;;;;;37.85;28.79;98923.85;109445;1285;23357;-55
2023/09/21 08:55:12;;;;;;;;;;;;;;;37.62;27.37;98922.39;109458;1285;22424;-56
2023/09/21 08:57:41;;;;;;;;;;;;;;;38.12;28.24;98918.25;109364;1285;86364;-55
2023/09/21 09:00:10;;;;;;;;;;;;;;;38.94;27.05;98922.44;109399;1286;22496;-56
2023/09/21 09:02:38;;;;;;;;;;;;;;;38.85;26.56;98920.33;109344;1285;86255;-56
2023/09/21 09:05:08;;;;;;;;;;;;;;;39.19;26.16;98918.54;109399;1285;22399;-56
2023/09/21 09:07:39;;;;;;;;;;;;;;;39.76;26.13;98911.52;109404;1286;22399;-56
2023/09/21 09:10:12;;;;;;;;;;;;;;;40.42;25.91;98907.14;109323;1285;85441;-55
2023/09/21 09:12:41;;;;;;;;;;;;;;;40.37;24.38;98909.80;109396;1286;22421;-56
2023/09/21 09:15:10;;;;;;;;;;;;;;;40.34;24.96;98903.97;109338;1286;86972;-56
2023/09/21 09:17:40;;;;;;;;;;;;;;;41.67;25.61;98899.44;109307;1283;22433;-57
2023/09/21 09:20:11;;;;;;;;;;;;;;;43.10;25.72;98896.59;109357;1285;86711;-56
2023/09/21 09:22:40;;;;;;;;;;;;;;;44.02;25.09;98891.38;109447;1285;22434;-56
2023/09/21 09:25:11;;;;;;;;;;;;;;;43.85;23.53;98885.30;109400;1285;23187;-56
2023/09/21 09:27:42;;;;;;;;;;;;;;;43.86;22.94;98887.48;109380;1286;86086;-56
2023/09/21 09:30:12;;;;;;;;;;;;;;;43.56;22.05;98890.61;109444;1285;22394;-56
2023/09/21 09:32:41;;;;;;;;;;;;;;;42.95;20.97;98879.96;109342;1285;86251;-56
2023/09/21 09:35:13;;;;;;;;;;;;;;;42.47;21.14;98879.98;109200;1286;22402;-56
2023/09/21 09:37:42;;;;;;;;;;;;;;;42.14;20.86;98881.52;109113;1286;22416;-56
2023/09/21 09:40:15;;;;;;;;;;;;;;;42.23;21.24;98878.73;109341;1285;86580;-56
2023/09/21 09:42:43;;;;;;;;;;;;;;;42.73;21.04;98879.20;109425;1285;23123;-57
2023/09/21 09:45:18;;;;;;;;;;;;;;;42.53;20.00;98885.65;109310;1285;86591;-57
2023/09/21 09:47:57;;;;;;;;;;;;;;;42.08;20.38;98881.52;109362;1285;22506;-59
2023/09/21 09:50:30;;;;;;;;;;;;;;;41.67;20.37;98881.60;109332;1285;85512;-56
2023/09/21 09:53:01;;;;;;;;;;;;;;;41.65;20.52;98882.31;109428;1285;22440;-57
2023/09/21 09:55:33;;;;;;;;;;;;;;;41.61;20.57;98883.52;109433;1285;22455;-58
2023/09/21 09:58:02;;;;;;;;;;;;;;;41.81;21.14;98878.53;109336;1285;86211;-56
2023/09/21 10:00:31;;;;;;;;;;;;;;;43.20;21.71;98872.33;109424;1285;22442;-57
2023/09/21 10:03:00;;;;;;;;;;;;;;;44.61;21.39;98866.88;109312;1285;86426;-57
2023/09/21 10:05:29;;;;;;;;;;;;;;;44.67;20.46;98865.19;109418;1286;23237;-57
2023/09/21 10:07:59;;;;;;;;;;;;;;;44.61;20.35;98863.13;109327;1285;86730;-58
2023/09/21 10:10:30;;;;;;;;;;;;;;;45.09;20.71;98859.84;109395;1285;22441;-58
2023/09/21 10:12:58;;;;;;;;;;;;;;;45.66;19.73;98860.89;109394;1285;22544;-57
2023/09/21 10:15:29;;;;;;;;;;;;;;;45.22;19.29;98847.23;109065;1286;86834;-58
2023/09/21 10:17:58;;;;;;;;;;;;;;;45.93;19.95;98850.09;109162;1286;22425;-57
2023/09/21 10:20:27;;;;;;;;;;;;;;;46.20;19.38;98846.14;109316;1285;85782;-57
2023/09/21 10:22:59;;;;;;;;;;;;;;;46.24;18.88;98848.93;109388;1285;22916;-56
2023/09/21 10:25:37;;;;;;;;;;;;;;;45.39;18.37;98843.77;109154;1286;22410;-56
2023/09/21 10:28:23;;;;;;;;;;;;;;;44.88;18.44;98838.63;109308;1285;86197;-58
2023/09/21 10:30:54;;;;;;;;;;;;;;;44.77;17.85;98843.20;109169;1286;22456;-57
2023/09/21 10:33:25;;;;;;;;;;;;;;;43.93;18.18;98840.72;109341;1285;84810;-57
2023/09/21 10:35:54;;;;;;;;;;;;;;;43.52;18.30;98841.42;109186;1286;22448;-61
2023/09/21 10:38:23;;;;;;;;;;;;;;;42.92;18.65;98839.05;109322;1285;86162;-57
2023/09/21 10:40:52;;;;;;;;;;;;;;;42.60;18.90;98834.06;109371;1285;22453;-57
2023/09/21 10:43:39;;;;;;;;;;;;;;;42.70;19.60;98816.16;109373;1285;23220;-58
2023/09/21 10:46:17;;;;;;;;;;;;;;;44.05;19.96;98811.40;109095;1285;86548;-57
2023/09/21 10:48:47;;;;;;;;;;;;;;;44.56;18.84;98811.20;109359;1285;23613;-56
2023/09/21 10:51:15;;;;;;;;;;;;;;;43.95;18.99;98801.02;109310;1285;86496;-55
2023/09/21 10:53:44;;;;;;;;;;;;;;;44.08;19.05;98805.03;109414;1284;22427;-60
2023/09/21 10:56:14;;;;;;;;;;;;;;;44.26;18.58;98798.31;109242;1286;85954;-58
2023/09/21 10:58:42;;;;;;;;;;;;;;;44.23;18.40;98800.77;109393;1285;22462;-61
2023/09/21 11:01:12;;;;;;;;;;;;;;;43.38;18.21;98795.96;109421;1285;22532;-63
2023/09/21 11:03:42;;;;;;;;;;;;;;;43.25;18.84;98796.05;109309;1285;84725;-60
2023/09/21 11:06:11;;;;;;;;;;;;;;;43.64;18.80;98800.25;109122;1285;24396;-60
2023/09/21 11:08:40;;;;;;;;;;;;;;;43.88;18.61;98803.54;109313;1285;86158;-60
2023/09/21 11:11:12;;;;;;;;;;;;;;;43.90;18.87;98801.30;109422;1285;22501;-56
2023/09/21 11:13:41;;;;;;;;;;;;;;;43.84;19.02;98802.39;109138;1286;22483;-58
2023/09/21 11:16:13;;;;;;;;;;;;;;;44.47;18.37;98806.23;109321;1285;86317;-63
2023/09/21 11:18:42;;;;;;;;;;;;;;;43.90;17.92;98797.43;109393;1285;22407;-57
2023/09/21 11:21:11;;;;;;;;;;;;;;;44.25;19.00;98791.06;109295;1285;86406;-55
2023/09/21 11:23:43;;;;;;;;;;;;;;;45.75;18.96;98799.45;109401;1285;22501;-58
2023/09/21 11:26:14;;;;;;;;;;;;;;;46.03;17.80;98797.55;109055;1285;86773;-57
2023/09/21 11:28:45;;;;;;;;;;;;;;;45.68;17.76;98785.10;109152;1286;22449;-56
2023/09/21 11:31:14;;;;;;;;;;;;;;;46.49;18.15;98784.98;109360;1285;22445;-57
2023/09/21 11:33:43;;;;;;;;;;;;;;;47.03;17.52;98792.14;109290;1286;86555;-57
2023/09/21 11:36:13;;;;;;;;;;;;;;;46.51;16.69;98785.69;109364;1285;22505;-58
2023/09/21 11:38:43;;;;;;;;;;;;;;;45.62;16.71;98784.45;109077;1286;86167;-56
2023/09/21 11:41:14;;;;;;;;;;;;;;;45.49;17.32;98782.33;109141;1287;22470;-58
2023/09/21 11:43:42;;;;;;;;;;;;;;;45.81;17.33;98784.75;109384;1282;23224;-58
2023/09/21 11:46:11;;;;;;;;;;;;;;;45.39;17.30;98776.33;109306;1285;85801;-59
2023/09/21 11:48:42;;;;;;;;;;;;;;;45.08;17.80;98773.11;109399;1285;22485;-59
2023/09/21 11:51:14;;;;;;;;;;;;;;;45.88;17.61;98776.40;109360;1285;85880;-56
2023/09/21 11:53:44;;;;;;;;;;;;;;;45.14;17.09;98777.20;109141;1286;22453;-60
2023/09/21 11:56:13;;;;;;;;;;;;;;;43.89;17.46;98775.92;109286;1285;86214;-61
2023/09/21 11:58:42;;;;;;;;;;;;;;;43.32;17.65;98774.97;109396;1285;22427;-60
2023/09/21 12:03:41;;;;;;;;;;;;;;;41.54;18.59;98761.24;109321;1287;86848;-61
2023/09/21 12:06:10;;;;;;;;;;;;;;;41.09;19.20;98759.36;109362;1285;22431;-62
2023/09/21 12:08:44;;;;;;;;;;;;;;;40.65;19.38;98756.98;109048;1287;87138;-62
2023/09/21 12:11:13;;;;;;;;;;;;;;;40.08;20.00;98751.82;109378;1285;23136;-61
2023/09/21 12:13:42;;;;;;;;;;;;;;;39.70;20.17;98746.89;109119;1286;22470;-61
2023/09/21 12:16:10;;;;;;;;;;;;;;;38.78;20.95;98743.67;109315;1285;84948;-59
2023/09/21 12:18:39;;;;;;;;;;;;;;;38.31;21.38;98738.22;109145;1282;22407;-61
2023/09/21 12:21:08;;;;;;;;;;;;;;;38.27;21.77;98740.47;109204;1279;86143;-60
2023/09/21 12:23:38;;;;;;;;;;;;;;;37.90;21.96;98746.43;109131;1286;22468;-60
2023/09/21 12:26:07;;;;;;;;;;;;;;;37.15;22.51;98745.05;109020;1284;85730;-60
2023/09/21 12:28:36;;;;;;;;;;;;;;;36.37;23.17;98738.06;109260;1286;22403;-60
2023/09/21 12:31:05;;;;;;;;;;;;;;;35.31;23.25;98741.46;109387;1285;23161;-59
2023/09/21 12:33:35;;;;;;;;;;;;;;;33.64;23.94;98747.60;109281;1285;86010;-59
2023/09/21 12:36:13;;;;;;;;;;;;;;;31.86;25.14;98742.05;109316;1287;22430;-60
2023/09/21 12:39:00;;;;;;;;;;;;;;;30.30;27.18;98743.63;109230;1286;86009;-56
2023/09/21 12:41:30;;;;;;;;;;;;;;;29.20;28.29;98743.77;109246;1286;22471;-56
2023/09/21 12:44:02;;;;;;;;;;;;;;;28.51;29.14;98740.80;109039;1286;86116;-60
2023/09/21 12:46:32;;;;;;;;;;;;;;;28.06;30.31;98741.61;109372;1285;22454;-62
2023/09/21 12:49:01;;;;;;;;;;;;;;;27.46;31.43;98739.48;109122;1286;23347;-59
2023/09/21 12:51:32;;;;;;;;;;;;;;;27.03;32.55;98742.71;109034;1286;86603;-59